sensor_id;sensor_type;location;lat;lon;timestamp;temperature;humidity
1476;DHT22;730;48.870;12.542;2023-03-14T00:02:17;9.90;1.00
1476;DHT22;730;48.870;12.542;2023-03-14T00:04:43;9.90;1.00
1476;DHT22;730;48.870;12.542;2023-03-14T00:07:13;9.90;1.00
1476;DHT22;730;48.870;12.542;2023-03-14T00:09:40;9.90;1.00
1476;DHT22;730;48.870;12.542;2023-03-14T00:12:06;9.70;1.00
1476;DHT22;730;48.870;12.542;2023-03-14T00:14:33;9.70;1.00
1476;DHT22;730;48.870;12.542;2023-03-14T00:16:59;9.70;1.00
1476;DHT22;730;48.870;12.542;2023-03-14T00:19:25;9.70;1.00
1476;DHT22;730;48.870;12.542;2023-03-14T00:21:51;9.60;1.00
1476;DHT22;730;48.870;12.542;2023-03-14T00:24:17;9.50;1.00
1476;DHT22;730;48.870;12.542;2023-03-14T00:26:43;9.50;1.00
1476;DHT22;730;48.870;12.542;2023-03-14T00:29:10;9.30;1.00
1476;DHT22;730;48.870;12.542;2023-03-14T00:31:36;9.30;1.00
1476;DHT22;730;48.870;12.542;2023-03-14T00:34:03;9.40;1.00
1476;DHT22;730;48.870;12.542;2023-03-14T00:36:30;9.40;1.00
1476;DHT22;730;48.870;12.542;2023-03-14T00:38:56;9.30;1.00
1476;DHT22;730;48.870;12.542;2023-03-14T00:41:23;9.10;1.00
1476;DHT22;730;48.870;12.542;2023-03-14T00:43:50;9.00;1.00
1476;DHT22;730;48.870;12.542;2023-03-14T00:46:16;8.80;1.00
1476;DHT22;730;48.870;12.542;2023-03-14T00:48:44;8.80;1.00
1476;DHT22;730;48.870;12.542;2023-03-14T00:51:12;8.80;1.00
1476;DHT22;730;48.870;12.542;2023-03-14T00:53:40;9.00;1.00
1476;DHT22;730;48.870;12.542;2023-03-14T00:56:10;9.00;1.00
1476;DHT22;730;48.870;12.542;2023-03-14T00:58:37;9.00;1.00
1476;DHT22;730;48.870;12.542;2023-03-14T01:01:14;9.00;1.00
1476;DHT22;730;48.870;12.542;2023-03-14T01:03:40;9.00;1.00
1476;DHT22;730;48.870;12.542;2023-03-14T01:06:17;9.00;1.00
1476;DHT22;730;48.870;12.542;2023-03-14T01:08:44;8.90;3.20
1476;DHT22;730;48.870;12.542;2023-03-14T01:11:17;9.00;4.10
1476;DHT22;730;48.870;12.542;2023-03-14T01:13:44;9.10;4.50
1476;DHT22;730;48.870;12.542;2023-03-14T01:16:10;9.10;4.50
1476;DHT22;730;48.870;12.542;2023-03-14T01:18:38;9.30;4.10
1476;DHT22;730;48.870;12.542;2023-03-14T01:21:11;9.50;2.20
1476;DHT22;730;48.870;12.542;2023-03-14T01:23:38;9.70;1.10
1476;DHT22;730;48.870;12.542;2023-03-14T01:26:04;9.80;1.00
1476;DHT22;730;48.870;12.542;2023-03-14T01:28:30;9.90;1.00
1476;DHT22;730;48.870;12.542;2023-03-14T01:31:02;10.00;1.00
1476;DHT22;730;48.870;12.542;2023-03-14T01:33:28;10.00;1.00
1476;DHT22;730;48.870;12.542;2023-03-14T01:35:58;10.00;1.00
1476;DHT22;730;48.870;12.542;2023-03-14T01:38:24;9.90;1.00
1476;DHT22;730;48.870;12.542;2023-03-14T01:40:50;9.90;1.00
1476;DHT22;730;48.870;12.542;2023-03-14T01:43:19;10.00;1.00
1476;DHT22;730;48.870;12.542;2023-03-14T01:48:46;10.00;1.00
1476;DHT22;730;48.870;12.542;2023-03-14T01:53:48;9.90;1.00
1476;DHT22;730;48.870;12.542;2023-03-14T01:56:17;9.90;1.00
1476;DHT22;730;48.870;12.542;2023-03-14T01:58:47;9.90;1.00
1476;DHT22;730;48.870;12.542;2023-03-14T02:01:16;9.90;1.70
1476;DHT22;730;48.870;12.542;2023-03-14T02:03:52;9.90;1.70
1476;DHT22;730;48.870;12.542;2023-03-14T02:06:23;10.00;1.30
1476;DHT22;730;48.870;12.542;2023-03-14T02:08:50;10.00;2.40
1476;DHT22;730;48.870;12.542;2023-03-14T02:11:17;10.10;3.30
1476;DHT22;730;48.870;12.542;2023-03-14T02:13:44;10.10;3.80
1476;DHT22;730;48.870;12.542;2023-03-14T02:16:10;10.10;4.10
1476;DHT22;730;48.870;12.542;2023-03-14T02:18:37;10.10;5.40
1476;DHT22;730;48.870;12.542;2023-03-14T02:23:58;10.10;7.50
1476;DHT22;730;48.870;12.542;2023-03-14T02:26:43;10.00;9.00
1476;DHT22;730;48.870;12.542;2023-03-14T02:29:11;10.00;10.20
1476;DHT22;730;48.870;12.542;2023-03-14T02:31:38;10.00;11.40
1476;DHT22;730;48.870;12.542;2023-03-14T02:34:04;10.00;12.40
1476;DHT22;730;48.870;12.542;2023-03-14T02:36:31;10.10;12.90
1476;DHT22;730;48.870;12.542;2023-03-14T02:39:08;10.10;13.10
1476;DHT22;730;48.870;12.542;2023-03-14T02:41:36;10.20;13.20
1476;DHT22;730;48.870;12.542;2023-03-14T02:44:02;10.20;13.50
1476;DHT22;730;48.870;12.542;2023-03-14T02:46:28;10.30;13.40
1476;DHT22;730;48.870;12.542;2023-03-14T02:49:02;10.30;13.60
1476;DHT22;730;48.870;12.542;2023-03-14T02:51:29;10.30;13.90
1476;DHT22;730;48.870;12.542;2023-03-14T02:53:57;10.20;13.90
1476;DHT22;730;48.870;12.542;2023-03-14T02:56:24;10.20;14.50
1476;DHT22;730;48.870;12.542;2023-03-14T02:58:53;10.20;14.80
1476;DHT22;730;48.870;12.542;2023-03-14T03:01:19;10.10;14.80
1476;DHT22;730;48.870;12.542;2023-03-14T03:03:50;10.00;15.20
1476;DHT22;730;48.870;12.542;2023-03-14T03:06:16;10.00;15.60
1476;DHT22;730;48.870;12.542;2023-03-14T03:08:42;10.00;16.00
1476;DHT22;730;48.870;12.542;2023-03-14T03:11:08;10.00;16.40
1476;DHT22;730;48.870;12.542;2023-03-14T03:13:34;9.90;17.20
1476;DHT22;730;48.870;12.542;2023-03-14T03:16:00;9.90;17.60
1476;DHT22;730;48.870;12.542;2023-03-14T03:18:29;9.80;18.50
1476;DHT22;730;48.870;12.542;2023-03-14T03:20:55;9.80;19.10
1476;DHT22;730;48.870;12.542;2023-03-14T03:23:21;9.80;19.10
1476;DHT22;730;48.870;12.542;2023-03-14T03:25:51;9.70;18.70
1476;DHT22;730;48.870;12.542;2023-03-14T03:28:19;9.80;18.60
1476;DHT22;730;48.870;12.542;2023-03-14T03:30:45;9.90;18.30
1476;DHT22;730;48.870;12.542;2023-03-14T03:33:11;10.00;17.90
1476;DHT22;730;48.870;12.542;2023-03-14T03:35:48;10.10;17.00
1476;DHT22;730;48.870;12.542;2023-03-14T03:38:15;10.10;15.90
1476;DHT22;730;48.870;12.542;2023-03-14T03:40:42;10.10;16.30
1476;DHT22;730;48.870;12.542;2023-03-14T03:43:08;10.10;16.40
1476;DHT22;730;48.870;12.542;2023-03-14T03:45:34;10.00;15.90
1476;DHT22;730;48.870;12.542;2023-03-14T03:48:01;10.10;16.30
1476;DHT22;730;48.870;12.542;2023-03-14T03:50:27;10.10;15.80
1476;DHT22;730;48.870;12.542;2023-03-14T03:52:53;10.10;16.30
1476;DHT22;730;48.870;12.542;2023-03-14T03:55:19;10.20;15.60
1476;DHT22;730;48.870;12.542;2023-03-14T03:57:45;10.30;15.10
1476;DHT22;730;48.870;12.542;2023-03-14T04:00:11;10.30;14.70
1476;DHT22;730;48.870;12.542;2023-03-14T04:02:38;10.40;14.30
1476;DHT22;730;48.870;12.542;2023-03-14T04:05:04;10.40;13.80
1476;DHT22;730;48.870;12.542;2023-03-14T04:07:34;10.50;13.20
1476;DHT22;730;48.870;12.542;2023-03-14T04:10:00;10.60;12.60
1476;DHT22;730;48.870;12.542;2023-03-14T04:12:26;10.50;12.40
1476;DHT22;730;48.870;12.542;2023-03-14T04:14:52;10.60;12.10
1476;DHT22;730;48.870;12.542;2023-03-14T04:17:18;10.60;12.10
1476;DHT22;730;48.870;12.542;2023-03-14T04:19:44;10.60;11.90
1476;DHT22;730;48.870;12.542;2023-03-14T04:22:13;10.60;11.70
1476;DHT22;730;48.870;12.542;2023-03-14T04:24:39;10.60;11.50
1476;DHT22;730;48.870;12.542;2023-03-14T04:27:05;10.60;11.30
1476;DHT22;730;48.870;12.542;2023-03-14T04:29:31;10.60;11.10
1476;DHT22;730;48.870;12.542;2023-03-14T04:31:57;10.60;10.90
1476;DHT22;730;48.870;12.542;2023-03-14T04:34:23;10.60;10.70
1476;DHT22;730;48.870;12.542;2023-03-14T04:36:49;10.60;10.60
1476;DHT22;730;48.870;12.542;2023-03-14T04:39:15;10.70;10.40
1476;DHT22;730;48.870;12.542;2023-03-14T04:41:41;10.70;10.20
1476;DHT22;730;48.870;12.542;2023-03-14T04:44:07;10.70;10.00
1476;DHT22;730;48.870;12.542;2023-03-14T04:46:33;10.70;10.00
1476;DHT22;730;48.870;12.542;2023-03-14T04:49:02;10.60;9.90
1476;DHT22;730;48.870;12.542;2023-03-14T04:51:28;10.60;9.80
1476;DHT22;730;48.870;12.542;2023-03-14T04:53:54;10.60;10.30
1476;DHT22;730;48.870;12.542;2023-03-14T04:56:20;10.60;9.70
1476;DHT22;730;48.870;12.542;2023-03-14T04:58:46;10.50;9.50
1476;DHT22;730;48.870;12.542;2023-03-14T05:01:13;10.50;9.40
1476;DHT22;730;48.870;12.542;2023-03-14T05:03:39;10.50;9.30
1476;DHT22;730;48.870;12.542;2023-03-14T05:06:05;10.40;9.40
1476;DHT22;730;48.870;12.542;2023-03-14T05:08:31;10.40;9.30
1476;DHT22;730;48.870;12.542;2023-03-14T05:10:57;10.40;9.30
1476;DHT22;730;48.870;12.542;2023-03-14T05:13:24;10.40;9.30
1476;DHT22;730;48.870;12.542;2023-03-14T05:15:50;10.40;9.30
1476;DHT22;730;48.870;12.542;2023-03-14T05:18:18;10.30;9.30
1476;DHT22;730;48.870;12.542;2023-03-14T05:20:44;10.40;9.20
1476;DHT22;730;48.870;12.542;2023-03-14T05:23:10;10.30;9.00
1476;DHT22;730;48.870;12.542;2023-03-14T05:25:36;10.40;8.60
1476;DHT22;730;48.870;12.542;2023-03-14T05:28:02;10.40;8.50
1476;DHT22;730;48.870;12.542;2023-03-14T05:30:28;10.30;8.60
1476;DHT22;730;48.870;12.542;2023-03-14T05:33:00;10.30;8.30
1476;DHT22;730;48.870;12.542;2023-03-14T05:35:27;10.20;8.50
1476;DHT22;730;48.870;12.542;2023-03-14T05:37:53;10.10;9.00
1476;DHT22;730;48.870;12.542;2023-03-14T05:40:19;10.00;8.90
1476;DHT22;730;48.870;12.542;2023-03-14T05:42:45;9.80;10.20
1476;DHT22;730;48.870;12.542;2023-03-14T05:45:11;9.80;10.60
1476;DHT22;730;48.870;12.542;2023-03-14T05:47:37;9.70;11.70
1476;DHT22;730;48.870;12.542;2023-03-14T05:50:03;9.60;11.60
1476;DHT22;730;48.870;12.542;2023-03-14T05:52:29;9.60;12.20
1476;DHT22;730;48.870;12.542;2023-03-14T05:54:55;9.70;11.90
1476;DHT22;730;48.870;12.542;2023-03-14T05:57:21;9.80;11.20
1476;DHT22;730;48.870;12.542;2023-03-14T05:59:47;9.70;11.20
1476;DHT22;730;48.870;12.542;2023-03-14T06:02:14;9.60;11.30
1476;DHT22;730;48.870;12.542;2023-03-14T06:04:40;9.70;11.10
1476;DHT22;730;48.870;12.542;2023-03-14T06:07:06;9.60;10.90
1476;DHT22;730;48.870;12.542;2023-03-14T06:09:39;9.60;10.50
1476;DHT22;730;48.870;12.542;2023-03-14T06:12:06;9.70;10.60
1476;DHT22;730;48.870;12.542;2023-03-14T06:14:32;9.70;9.60
1476;DHT22;730;48.870;12.542;2023-03-14T06:16:58;9.60;10.10
1476;DHT22;730;48.870;12.542;2023-03-14T06:19:25;9.70;9.80
1476;DHT22;730;48.870;12.542;2023-03-14T06:21:51;9.60;9.00
1476;DHT22;730;48.870;12.542;2023-03-14T06:24:17;9.60;9.60
1476;DHT22;730;48.870;12.542;2023-03-14T06:26:44;9.60;9.70
1476;DHT22;730;48.870;12.542;2023-03-14T06:29:10;9.60;9.80
1476;DHT22;730;48.870;12.542;2023-03-14T06:31:36;9.50;9.70
1476;DHT22;730;48.870;12.542;2023-03-14T06:34:05;9.60;9.80
1476;DHT22;730;48.870;12.542;2023-03-14T06:36:31;9.50;10.00
1476;DHT22;730;48.870;12.542;2023-03-14T06:38:57;9.50;10.20
1476;DHT22;730;48.870;12.542;2023-03-14T06:41:23;9.50;10.00
1476;DHT22;730;48.870;12.542;2023-03-14T06:43:51;9.60;9.30
1476;DHT22;730;48.870;12.542;2023-03-14T06:46:17;9.70;9.10
1476;DHT22;730;48.870;12.542;2023-03-14T06:48:43;9.70;8.30
1476;DHT22;730;48.870;12.542;2023-03-14T06:51:09;9.70;7.90
1476;DHT22;730;48.870;12.542;2023-03-14T06:53:36;9.70;8.30
1476;DHT22;730;48.870;12.542;2023-03-14T06:56:02;9.70;8.70
1476;DHT22;730;48.870;12.542;2023-03-14T06:58:28;9.90;8.40
1476;DHT22;730;48.870;12.542;2023-03-14T07:00:54;9.80;7.50
1476;DHT22;730;48.870;12.542;2023-03-14T07:03:20;9.90;7.20
1476;DHT22;730;48.870;12.542;2023-03-14T07:05:46;9.90;7.50
1476;DHT22;730;48.870;12.542;2023-03-14T07:08:12;9.90;6.50
1476;DHT22;730;48.870;12.542;2023-03-14T07:10:38;9.90;6.80
1476;DHT22;730;48.870;12.542;2023-03-14T07:13:04;9.90;6.20
1476;DHT22;730;48.870;12.542;2023-03-14T07:15:32;9.90;5.40
1476;DHT22;730;48.870;12.542;2023-03-14T07:17:58;9.90;5.40
1476;DHT22;730;48.870;12.542;2023-03-14T07:20:24;10.00;4.70
1476;DHT22;730;48.870;12.542;2023-03-14T07:22:50;10.10;4.40
1476;DHT22;730;48.870;12.542;2023-03-14T07:25:17;10.20;3.90
1476;DHT22;730;48.870;12.542;2023-03-14T07:27:44;10.10;3.20
1476;DHT22;730;48.870;12.542;2023-03-14T07:30:11;10.20;3.50
1476;DHT22;730;48.870;12.542;2023-03-14T07:32:37;10.30;3.30
1476;DHT22;730;48.870;12.542;2023-03-14T07:35:04;10.30;3.30
1476;DHT22;730;48.870;12.542;2023-03-14T07:37:30;10.30;2.50
1476;DHT22;730;48.870;12.542;2023-03-14T07:39:56;10.40;2.40
1476;DHT22;730;48.870;12.542;2023-03-14T07:42:22;10.50;2.50
1476;DHT22;730;48.870;12.542;2023-03-14T07:44:48;10.50;1.60
1476;DHT22;730;48.870;12.542;2023-03-14T07:47:14;10.50;1.30
1476;DHT22;730;48.870;12.542;2023-03-14T07:49:40;10.60;1.10
1476;DHT22;730;48.870;12.542;2023-03-14T07:52:07;10.70;1.40
1476;DHT22;730;48.870;12.542;2023-03-14T07:54:33;10.80;1.00
1476;DHT22;730;48.870;12.542;2023-03-14T07:56:59;10.90;1.00
1476;DHT22;730;48.870;12.542;2023-03-14T07:59:27;10.90;1.00
1476;DHT22;730;48.870;12.542;2023-03-14T08:01:53;11.00;1.00
1476;DHT22;730;48.870;12.542;2023-03-14T08:04:19;11.00;1.00
1476;DHT22;730;48.870;12.542;2023-03-14T08:06:45;10.90;1.00
1476;DHT22;730;48.870;12.542;2023-03-14T08:09:11;10.90;1.00
1476;DHT22;730;48.870;12.542;2023-03-14T08:11:37;10.90;1.00
1476;DHT22;730;48.870;12.542;2023-03-14T08:14:04;11.00;1.00
1476;DHT22;730;48.870;12.542;2023-03-14T08:16:31;11.10;1.00
1476;DHT22;730;48.870;12.542;2023-03-14T08:18:57;11.00;1.00
1476;DHT22;730;48.870;12.542;2023-03-14T08:21:23;11.00;1.00
1476;DHT22;730;48.870;12.542;2023-03-14T08:23:49;11.00;1.00
1476;DHT22;730;48.870;12.542;2023-03-14T08:26:15;10.90;1.00
1476;DHT22;730;48.870;12.542;2023-03-14T08:28:41;11.00;1.00
1476;DHT22;730;48.870;12.542;2023-03-14T08:31:07;11.00;1.00
1476;DHT22;730;48.870;12.542;2023-03-14T08:33:33;11.00;1.00
1476;DHT22;730;48.870;12.542;2023-03-14T08:36:00;11.10;1.00
1476;DHT22;730;48.870;12.542;2023-03-14T08:38:29;11.10;1.00
1476;DHT22;730;48.870;12.542;2023-03-14T08:40:57;11.10;1.00
1476;DHT22;730;48.870;12.542;2023-03-14T08:43:24;11.20;1.00
1476;DHT22;730;48.870;12.542;2023-03-14T08:45:51;11.30;1.00
1476;DHT22;730;48.870;12.542;2023-03-14T08:48:17;11.20;1.00
1476;DHT22;730;48.870;12.542;2023-03-14T08:50:43;11.30;1.00
1476;DHT22;730;48.870;12.542;2023-03-14T08:53:10;11.40;1.00
1476;DHT22;730;48.870;12.542;2023-03-14T08:55:36;11.50;1.00
1476;DHT22;730;48.870;12.542;2023-03-14T08:58:02;11.60;1.00
1476;DHT22;730;48.870;12.542;2023-03-14T09:00:29;11.60;1.00
1476;DHT22;730;48.870;12.542;2023-03-14T09:02:55;11.60;1.00
1476;DHT22;730;48.870;12.542;2023-03-14T09:05:21;11.70;1.00
1476;DHT22;730;48.870;12.542;2023-03-14T09:07:47;11.80;1.00
1476;DHT22;730;48.870;12.542;2023-03-14T09:10:13;11.80;1.00
1476;DHT22;730;48.870;12.542;2023-03-14T09:12:47;11.90;1.00
1476;DHT22;730;48.870;12.542;2023-03-14T09:15:13;12.00;1.00
1476;DHT22;730;48.870;12.542;2023-03-14T09:17:39;12.10;1.00
1476;DHT22;730;48.870;12.542;2023-03-14T09:20:08;12.20;1.00
1476;DHT22;730;48.870;12.542;2023-03-14T09:22:34;12.30;1.00
1476;DHT22;730;48.870;12.542;2023-03-14T09:25:03;12.30;1.00
1476;DHT22;730;48.870;12.542;2023-03-14T09:27:29;12.30;1.00
1476;DHT22;730;48.870;12.542;2023-03-14T09:29:55;12.30;1.00
1476;DHT22;730;48.870;12.542;2023-03-14T09:32:21;12.40;1.00
1476;DHT22;730;48.870;12.542;2023-03-14T09:34:47;12.30;1.00
1476;DHT22;730;48.870;12.542;2023-03-14T09:37:13;12.40;1.00
1476;DHT22;730;48.870;12.542;2023-03-14T09:39:41;12.30;1.00
1476;DHT22;730;48.870;12.542;2023-03-14T09:42:13;12.40;1.00
1476;DHT22;730;48.870;12.542;2023-03-14T09:44:45;12.40;1.00
1476;DHT22;730;48.870;12.542;2023-03-14T09:47:15;12.40;1.00
1476;DHT22;730;48.870;12.542;2023-03-14T09:49:42;12.50;1.00
1476;DHT22;730;48.870;12.542;2023-03-14T09:52:24;12.40;1.00
1476;DHT22;730;48.870;12.542;2023-03-14T09:54:56;12.60;1.00
1476;DHT22;730;48.870;12.542;2023-03-14T09:57:26;12.60;1.00
1476;DHT22;730;48.870;12.542;2023-03-14T10:00:00;12.60;1.00
1476;DHT22;730;48.870;12.542;2023-03-14T10:02:34;12.70;1.00
1476;DHT22;730;48.870;12.542;2023-03-14T10:05:01;12.80;1.00
1476;DHT22;730;48.870;12.542;2023-03-14T10:07:29;12.60;1.00
1476;DHT22;730;48.870;12.542;2023-03-14T10:09:57;12.70;1.00
1476;DHT22;730;48.870;12.542;2023-03-14T10:12:34;12.70;1.00
1476;DHT22;730;48.870;12.542;2023-03-14T10:15:09;12.80;1.00
1476;DHT22;730;48.870;12.542;2023-03-14T10:18:03;12.80;1.00
1476;DHT22;730;48.870;12.542;2023-03-14T10:23:05;12.80;1.00
1476;DHT22;730;48.870;12.542;2023-03-14T10:25:35;12.80;1.00
1476;DHT22;730;48.870;12.542;2023-03-14T10:28:04;12.90;1.00
1476;DHT22;730;48.870;12.542;2023-03-14T10:30:39;13.00;1.00
1476;DHT22;730;48.870;12.542;2023-03-14T10:33:24;12.90;1.00
1476;DHT22;730;48.870;12.542;2023-03-14T10:36:23;13.00;1.00
1476;DHT22;730;48.870;12.542;2023-03-14T10:42:33;13.10;1.00
1476;DHT22;730;48.870;12.542;2023-03-14T10:44:34;13.10;1.00
1476;DHT22;730;48.870;12.542;2023-03-14T10:47:03;13.10;1.00
1476;DHT22;730;48.870;12.542;2023-03-14T10:49:35;13.20;1.00
1476;DHT22;730;48.870;12.542;2023-03-14T10:52:15;13.40;1.00
1476;DHT22;730;48.870;12.542;2023-03-14T10:54:41;13.60;1.00
1476;DHT22;730;48.870;12.542;2023-03-14T10:57:10;13.50;1.00
1476;DHT22;730;48.870;12.542;2023-03-14T10:59:39;13.30;1.00
1476;DHT22;730;48.870;12.542;2023-03-14T11:02:31;13.30;1.00
1476;DHT22;730;48.870;12.542;2023-03-14T11:05:30;13.40;1.00
1476;DHT22;730;48.870;12.542;2023-03-14T11:08:07;13.50;1.00
1476;DHT22;730;48.870;12.542;2023-03-14T11:10:44;13.60;1.00
1476;DHT22;730;48.870;12.542;2023-03-14T11:13:16;13.70;1.00
1476;DHT22;730;48.870;12.542;2023-03-14T11:21:22;14.00;1.00
1476;DHT22;730;48.870;12.542;2023-03-14T11:29:02;14.00;1.00
1476;DHT22;730;48.870;12.542;2023-03-14T11:31:33;13.90;1.00
1476;DHT22;730;48.870;12.542;2023-03-14T11:34:07;13.90;1.00
1476;DHT22;730;48.870;12.542;2023-03-14T11:36:41;13.90;1.00
1476;DHT22;730;48.870;12.542;2023-03-14T11:39:17;13.90;1.00
1476;DHT22;730;48.870;12.542;2023-03-14T11:41:53;13.90;1.00
1476;DHT22;730;48.870;12.542;2023-03-14T11:44:25;13.90;1.00
1476;DHT22;730;48.870;12.542;2023-03-14T11:49:34;14.20;1.00
1476;DHT22;730;48.870;12.542;2023-03-14T11:52:10;14.30;1.00
1476;DHT22;730;48.870;12.542;2023-03-14T11:54:48;14.20;1.00
1476;DHT22;730;48.870;12.542;2023-03-14T11:57:18;14.20;1.00
1476;DHT22;730;48.870;12.542;2023-03-14T12:08:39;13.70;1.00
1476;DHT22;730;48.870;12.542;2023-03-14T12:13:40;13.60;1.00
1476;DHT22;730;48.870;12.542;2023-03-14T12:16:33;13.50;1.00
1476;DHT22;730;48.870;12.542;2023-03-14T12:18:57;13.40;1.00
1476;DHT22;730;48.870;12.542;2023-03-14T12:24:36;13.20;1.00
1476;DHT22;730;48.870;12.542;2023-03-14T12:27:05;13.20;1.00
1476;DHT22;730;48.870;12.542;2023-03-14T12:29:57;13.20;1.00
1476;DHT22;730;48.870;12.542;2023-03-14T12:32:25;13.10;1.00
1476;DHT22;730;48.870;12.542;2023-03-14T12:34:51;13.00;1.00
1476;DHT22;730;48.870;12.542;2023-03-14T12:37:29;12.90;1.00
1476;DHT22;730;48.870;12.542;2023-03-14T12:40:17;12.90;1.00
1476;DHT22;730;48.870;12.542;2023-03-14T12:43:10;12.90;1.00
1476;DHT22;730;48.870;12.542;2023-03-14T12:46:14;12.90;1.00
1476;DHT22;730;48.870;12.542;2023-03-14T12:48:47;12.90;1.00
1476;DHT22;730;48.870;12.542;2023-03-14T12:51:28;12.90;1.00
1476;DHT22;730;48.870;12.542;2023-03-14T12:56:38;12.90;1.00
1476;DHT22;730;48.870;12.542;2023-03-14T12:59:15;13.10;1.00
1476;DHT22;730;48.870;12.542;2023-03-14T13:02:01;13.10;1.00
1476;DHT22;730;48.870;12.542;2023-03-14T13:04:33;13.30;1.00
1476;DHT22;730;48.870;12.542;2023-03-14T13:07:01;13.50;1.00
1476;DHT22;730;48.870;12.542;2023-03-14T13:12:16;13.60;1.00
1476;DHT22;730;48.870;12.542;2023-03-14T13:14:48;13.60;1.00
1476;DHT22;730;48.870;12.542;2023-03-14T13:17:22;13.50;1.00
1476;DHT22;730;48.870;12.542;2023-03-14T13:19:55;13.40;1.00
1476;DHT22;730;48.870;12.542;2023-03-14T13:22:26;13.20;1.00
1476;DHT22;730;48.870;12.542;2023-03-14T13:25:04;13.20;1.00
1476;DHT22;730;48.870;12.542;2023-03-14T13:27:33;13.20;1.00
1476;DHT22;730;48.870;12.542;2023-03-14T13:32:44;13.30;1.00
1476;DHT22;730;48.870;12.542;2023-03-14T13:35:22;13.20;1.00
1476;DHT22;730;48.870;12.542;2023-03-14T13:37:58;13.10;1.00
1476;DHT22;730;48.870;12.542;2023-03-14T13:40:34;13.00;1.00
1476;DHT22;730;48.870;12.542;2023-03-14T13:43:16;13.00;1.00
1476;DHT22;730;48.870;12.542;2023-03-14T13:46:15;12.90;1.00
1476;DHT22;730;48.870;12.542;2023-03-14T13:48:50;12.70;1.00
1476;DHT22;730;48.870;12.542;2023-03-14T13:51:19;12.70;1.00
1476;DHT22;730;48.870;12.542;2023-03-14T13:53:51;12.70;1.00
1476;DHT22;730;48.870;12.542;2023-03-14T13:56:19;12.80;1.00
1476;DHT22;730;48.870;12.542;2023-03-14T13:58:46;12.90;1.00
1476;DHT22;730;48.870;12.542;2023-03-14T14:03:46;12.80;1.00
1476;DHT22;730;48.870;12.542;2023-03-14T14:08:58;12.70;1.00
1476;DHT22;730;48.870;12.542;2023-03-14T14:11:40;12.80;1.00
1476;DHT22;730;48.870;12.542;2023-03-14T14:14:15;12.80;1.00
1476;DHT22;730;48.870;12.542;2023-03-14T14:16:43;12.90;1.00
1476;DHT22;730;48.870;12.542;2023-03-14T14:19:11;13.00;1.00
1476;DHT22;730;48.870;12.542;2023-03-14T14:21:37;13.10;1.00
1476;DHT22;730;48.870;12.542;2023-03-14T14:24:04;13.10;1.00
1476;DHT22;730;48.870;12.542;2023-03-14T14:26:31;13.00;1.00
1476;DHT22;730;48.870;12.542;2023-03-14T14:29:05;13.00;1.00
1476;DHT22;730;48.870;12.542;2023-03-14T14:31:32;13.00;1.00
1476;DHT22;730;48.870;12.542;2023-03-14T14:34:01;12.90;1.00
1476;DHT22;730;48.870;12.542;2023-03-14T14:36:39;12.80;1.00
1476;DHT22;730;48.870;12.542;2023-03-14T14:39:23;12.70;1.00
1476;DHT22;730;48.870;12.542;2023-03-14T14:41:51;12.70;1.00
1476;DHT22;730;48.870;12.542;2023-03-14T14:44:26;12.80;1.00
1476;DHT22;730;48.870;12.542;2023-03-14T14:46:55;12.70;1.00
1476;DHT22;730;48.870;12.542;2023-03-14T14:49:28;12.60;1.00
1476;DHT22;730;48.870;12.542;2023-03-14T14:52:11;12.20;1.00
1476;DHT22;730;48.870;12.542;2023-03-14T14:54:46;11.90;1.00
1476;DHT22;730;48.870;12.542;2023-03-14T14:57:21;11.60;3.40
1476;DHT22;730;48.870;12.542;2023-03-14T14:59:54;11.50;4.80
1476;DHT22;730;48.870;12.542;2023-03-14T15:04:55;11.10;5.00
1476;DHT22;730;48.870;12.542;2023-03-14T15:07:21;11.00;6.20
1476;DHT22;730;48.870;12.542;2023-03-14T15:09:47;10.90;7.50
1476;DHT22;730;48.870;12.542;2023-03-14T15:12:14;10.90;7.70
1476;DHT22;730;48.870;12.542;2023-03-14T15:14:40;10.80;7.30
1476;DHT22;730;48.870;12.542;2023-03-14T15:17:10;10.80;8.10
1476;DHT22;730;48.870;12.542;2023-03-14T15:19:36;10.70;8.50
1476;DHT22;730;48.870;12.542;2023-03-14T15:22:02;10.70;7.60
1476;DHT22;730;48.870;12.542;2023-03-14T15:24:28;10.70;8.40
1476;DHT22;730;48.870;12.542;2023-03-14T15:26:54;10.70;8.50
1476;DHT22;730;48.870;12.542;2023-03-14T15:29:20;10.70;9.00
1476;DHT22;730;48.870;12.542;2023-03-14T15:31:46;10.60;7.70
1476;DHT22;730;48.870;12.542;2023-03-14T15:34:13;10.60;8.70
1476;DHT22;730;48.870;12.542;2023-03-14T15:36:39;10.60;7.80
1476;DHT22;730;48.870;12.542;2023-03-14T15:39:06;10.60;8.20
1476;DHT22;730;48.870;12.542;2023-03-14T15:41:34;10.60;7.30
1476;DHT22;730;48.870;12.542;2023-03-14T15:44:01;10.50;7.40
1476;DHT22;730;48.870;12.542;2023-03-14T15:46:27;10.50;8.10
1476;DHT22;730;48.870;12.542;2023-03-14T15:48:53;10.50;7.40
1476;DHT22;730;48.870;12.542;2023-03-14T15:51:19;10.50;6.60
1476;DHT22;730;48.870;12.542;2023-03-14T15:53:45;10.40;5.00
1476;DHT22;730;48.870;12.542;2023-03-14T15:56:14;10.40;4.30
1476;DHT22;730;48.870;12.542;2023-03-14T15:58:40;10.40;3.80
1476;DHT22;730;48.870;12.542;2023-03-14T16:01:07;10.40;3.10
1476;DHT22;730;48.870;12.542;2023-03-14T16:03:36;10.40;1.50
1476;DHT22;730;48.870;12.542;2023-03-14T16:06:03;10.40;1.00
1476;DHT22;730;48.870;12.542;2023-03-14T16:08:29;10.40;1.00
1476;DHT22;730;48.870;12.542;2023-03-14T16:10:58;10.30;1.00
1476;DHT22;730;48.870;12.542;2023-03-14T16:13:24;10.20;1.00
1476;DHT22;730;48.870;12.542;2023-03-14T16:15:55;10.10;1.00
1476;DHT22;730;48.870;12.542;2023-03-14T16:18:21;9.90;1.00
1476;DHT22;730;48.870;12.542;2023-03-14T16:21:15;9.80;1.00
1476;DHT22;730;48.870;12.542;2023-03-14T16:23:42;9.70;1.00
1476;DHT22;730;48.870;12.542;2023-03-14T16:26:10;9.70;1.00
1476;DHT22;730;48.870;12.542;2023-03-14T16:28:37;9.60;1.00
1476;DHT22;730;48.870;12.542;2023-03-14T16:31:05;9.50;1.00
1476;DHT22;730;48.870;12.542;2023-03-14T16:33:33;9.50;1.00
1476;DHT22;730;48.870;12.542;2023-03-14T16:36:01;9.40;1.00
1476;DHT22;730;48.870;12.542;2023-03-14T16:38:32;9.40;1.00
1476;DHT22;730;48.870;12.542;2023-03-14T16:41:06;9.40;1.00
1476;DHT22;730;48.870;12.542;2023-03-14T16:43:32;9.40;1.00
1476;DHT22;730;48.870;12.542;2023-03-14T16:46:02;9.40;1.00
1476;DHT22;730;48.870;12.542;2023-03-14T16:48:29;9.40;1.00
1476;DHT22;730;48.870;12.542;2023-03-14T16:50:55;9.30;1.00
1476;DHT22;730;48.870;12.542;2023-03-14T16:53:22;9.30;1.00
1476;DHT22;730;48.870;12.542;2023-03-14T16:55:49;9.30;1.00
1476;DHT22;730;48.870;12.542;2023-03-14T16:58:16;9.30;1.00
1476;DHT22;730;48.870;12.542;2023-03-14T17:00:46;9.20;1.00
1476;DHT22;730;48.870;12.542;2023-03-14T17:03:13;9.20;1.00
1476;DHT22;730;48.870;12.542;2023-03-14T17:05:46;9.20;1.00
1476;DHT22;730;48.870;12.542;2023-03-14T17:08:14;9.10;1.00
1476;DHT22;730;48.870;12.542;2023-03-14T17:10:40;9.10;1.00
1476;DHT22;730;48.870;12.542;2023-03-14T17:13:06;9.00;1.00
1476;DHT22;730;48.870;12.542;2023-03-14T17:15:32;9.10;1.00
1476;DHT22;730;48.870;12.542;2023-03-14T17:17:58;9.00;1.00
1476;DHT22;730;48.870;12.542;2023-03-14T17:20:24;9.00;1.00
1476;DHT22;730;48.870;12.542;2023-03-14T17:22:51;9.00;1.00
1476;DHT22;730;48.870;12.542;2023-03-14T17:25:17;8.90;1.00
1476;DHT22;730;48.870;12.542;2023-03-14T17:27:46;8.90;1.00
1476;DHT22;730;48.870;12.542;2023-03-14T17:30:13;8.90;1.00